Retalhuleu, Guatemala
Current Conditions -  °F | °C
As of 5:46 AM on Thursday 23 Oct 2014 (Local Time) from MMTP Reporting Station
Overcast Overcast  
Wind Chill: 75°   Ceiling: 9000
Heat Index: 75°   Visibility: 10mi
Dew Point: 73°   Wind: 0mph
Humidity: 94%   Direction: NA
Pressure: 29.87"   Gusts: NA
Location:  14.54°N, 91.69°W
Report Text: MMTP 231146Z 00000KT 10SM OVC090 24/23 A2987 SLP106 52014 924 8/05/ RMK BINOVC
Loading
Personal Weather Stations






























Interactive Weather Map
Tropical Storm Tracking
New forecast layout! Learn more

10-Day Weather Forecast

Advertisements
Track Severe Weather on mobile